Time;durP1;ratioP1;P1;durP2;ratioP2;P2;SDS_P1;SDS_P2;PMS_P1;PMS_P2;Temp;Humidity;BMP_temperature;BMP_pressure;BME280_temperature;BME280_humidity;BME280_pressure;Samples;Min_cycle;Max_cycle;Signal;HPM_P1;HPM_P2
2021/06/14 00:01:37;;;;;;;;;7.00;7.00;;;;;20.67;42.10;101843.25;5072938;27;45694;-64
2021/06/14 00:04:04;;;;;;;;;10.75;9.00;;;;;20.64;42.55;101843.63;5077286;27;45562;-64
2021/06/14 00:06:29;;;;;;;;;8.25;8.00;;;;;20.61;42.56;101836.78;5070182;27;45499;-64
2021/06/14 00:08:55;;;;;;;;;10.25;9.50;;;;;20.58;42.36;101839.84;5069042;27;46197;-64
2021/06/14 00:11:20;;;;;;;;;13.00;11.00;;;;;20.55;42.79;101845.63;5072275;27;45697;-64
2021/06/14 00:13:45;;;;;;;;;14.75;12.25;;;;;20.53;42.62;101846.78;5072677;27;45504;-66
2021/06/14 00:16:11;;;;;;;;;17.00;15.00;;;;;20.49;42.73;101854.38;5068919;27;45467;-64
2021/06/14 00:18:37;;;;;;;;;18.75;14.00;;;;;20.46;42.69;101845.88;5070536;27;46576;-65
2021/06/14 00:21:09;;;;;;;;;13.25;12.50;;;;;20.43;42.85;101840.88;5071665;27;45373;-64
2021/06/14 00:23:35;;;;;;;;;12.75;11.50;;;;;20.39;43.19;101833.19;5066311;27;45618;-67
2021/06/14 00:26:09;;;;;;;;;17.00;15.00;;;;;20.36;43.15;101825.53;5069995;27;45713;-67
2021/06/14 00:28:36;;;;;;;;;13.00;10.25;;;;;20.32;43.25;101840.31;5071112;27;45834;-65
2021/06/14 00:31:02;;;;;;;;;12.75;10.00;;;;;20.30;43.58;101834.34;5069631;27;45650;-73
2021/06/14 00:33:28;;;;;;;;;7.25;7.25;;;;;20.27;43.41;101840.06;5071429;27;45554;-69
2021/06/14 00:35:53;;;;;;;;;10.00;8.25;;;;;20.24;43.77;101832.38;5076900;27;45922;-69
2021/06/14 00:38:20;;;;;;;;;9.75;8.75;;;;;20.21;43.33;101843.50;5069161;27;45594;-73
2021/06/14 00:40:47;;;;;;;;;10.00;9.00;;;;;20.19;43.96;101849.03;5068758;27;45602;-69
2021/06/14 00:43:13;;;;;;;;;8.00;7.00;;;;;20.17;43.89;101836.81;5076639;27;45505;-70
2021/06/14 00:45:45;;;;;;;;;6.25;6.25;;;;;20.16;43.40;101841.38;5075486;27;45718;-66
2021/06/14 00:48:12;;;;;;;;;7.00;7.00;;;;;20.14;43.83;101845.25;5080836;27;46803;-67
2021/06/14 00:50:46;;;;;;;;;6.25;5.75;;;;;20.09;43.72;101845.81;5063900;27;45477;-73
2021/06/14 00:53:15;;;;;;;;;6.75;6.75;;;;;20.07;43.85;101844.31;5072281;27;45531;-67
2021/06/14 00:55:41;;;;;;;;;6.00;5.75;;;;;20.04;44.09;101842.03;5076308;27;45525;-72
2021/06/14 00:58:07;;;;;;;;;4.50;4.50;;;;;20.02;44.13;101846.75;5075174;27;45476;-67
2021/06/14 01:00:32;;;;;;;;;5.00;4.00;;;;;19.99;43.56;101837.22;5071071;27;45602;-67
2021/06/14 01:02:58;;;;;;;;;7.50;4.75;;;;;19.96;44.07;101835.72;5072889;27;45524;-70
2021/06/14 01:05:26;;;;;;;;;4.25;4.25;;;;;19.94;44.29;101835.06;5078354;27;45608;-73
2021/06/14 01:07:51;;;;;;;;;6.00;6.00;;;;;19.93;44.61;101838.78;5073263;27;46664;-69
2021/06/14 01:10:17;;;;;;;;;4.75;4.75;;;;;19.89;44.70;101834.78;5071817;27;45570;-69
2021/06/14 01:13:27;;;;;;;;;3.75;3.75;;;;;19.85;44.72;101836.16;5072537;27;45455;-69
2021/06/14 01:16:13;;;;;;;;;5.75;4.75;;;;;19.83;45.09;101840.06;4990088;28;45694;-72
2021/06/14 01:18:47;;;;;;;;;5.25;4.50;;;;;19.78;45.31;101832.56;5009460;28;45679;-69
2021/06/14 01:21:27;;;;;;;;;5.00;4.00;;;;;19.73;45.59;101833.13;5008670;28;45537;-72
2021/06/14 01:24:31;;;;;;;;;4.25;4.25;;;;;19.68;45.45;101832.84;5006020;28;45461;-69
2021/06/14 01:27:04;;;;;;;;;4.75;4.75;;;;;19.65;45.38;101835.00;5006023;28;45683;-70
2021/06/14 01:29:31;;;;;;;;;8.25;5.00;;;;;19.62;45.36;101833.53;5005803;28;46071;-69
2021/06/14 01:31:58;;;;;;;;;7.50;5.50;;;;;19.59;45.56;101830.41;5007175;28;45600;-69
2021/06/14 01:34:27;;;;;;;;;5.75;5.00;;;;;19.56;46.09;101828.91;5004809;28;45873;-69
2021/06/14 01:36:55;;;;;;;;;5.00;4.50;;;;;19.52;45.85;101819.56;5008195;28;45540;-69
2021/06/14 01:39:23;;;;;;;;;4.25;4.25;;;;;19.48;46.11;101824.44;5006404;28;46167;-67
2021/06/14 01:41:49;;;;;;;;;4.00;3.75;;;;;19.42;46.58;101819.00;5005768;28;45585;-72
2021/06/14 01:44:16;;;;;;;;;6.00;4.50;;;;;19.36;46.59;101815.16;5009568;28;45648;-67
2021/06/14 01:46:43;;;;;;;;;5.00;5.00;;;;;19.31;47.44;101818.41;5005889;28;45467;-67
2021/06/14 01:49:11;;;;;;;;;4.75;4.25;;;;;19.26;48.22;101818.13;4987486;28;47431;-69
2021/06/14 01:51:39;;;;;;;;;6.75;5.00;;;;;19.21;48.47;101808.94;5011239;28;45561;-69
2021/06/14 01:54:08;;;;;;;;;6.50;6.50;;;;;19.17;48.25;101808.47;5082096;27;45427;-66
2021/06/14 01:56:39;;;;;;;;;5.50;5.50;;;;;19.13;48.35;101802.63;5065931;27;45464;-67
2021/06/14 01:59:06;;;;;;;;;6.00;5.25;;;;;19.10;48.91;101804.84;5078829;27;46840;-72
2021/06/14 02:01:33;;;;;;;;;6.75;6.00;;;;;19.05;48.69;101794.66;5073003;27;45697;-67
2021/06/14 02:04:00;;;;;;;;;7.50;7.25;;;;;19.01;49.45;101788.00;5067852;27;45436;-69
2021/06/14 02:06:29;;;;;;;;;4.75;4.75;;;;;18.97;50.18;101780.53;5071783;27;45645;-70
2021/06/14 02:08:54;;;;;;;;;6.00;5.75;;;;;18.94;49.96;101778.16;5069124;27;45568;-70
2021/06/14 02:11:20;;;;;;;;;5.00;5.00;;;;;18.89;49.70;101779.56;5066740;27;45583;-70
2021/06/14 02:13:46;;;;;;;;;5.75;5.00;;;;;18.87;49.78;101775.41;5067567;27;45490;-70
2021/06/14 02:16:15;;;;;;;;;6.25;6.25;;;;;18.82;49.64;101775.09;5072486;27;45397;-73
2021/06/14 02:18:40;;;;;;;;;7.50;4.50;;;;;18.77;50.23;101772.09;5072994;27;46529;-67
2021/06/14 02:21:05;;;;;;;;;7.75;7.25;;;;;18.68;50.52;101772.13;5069219;27;45751;-73
2021/06/14 02:23:31;;;;;;;;;6.75;6.75;;;;;18.63;49.89;101769.16;5075801;27;45440;-67
2021/06/14 02:25:56;;;;;;;;;7.00;7.00;;;;;18.55;50.57;101755.84;5048576;27;45523;-72
2021/06/14 02:28:22;;;;;;;;;9.25;7.00;;;;;18.52;50.83;101764.22;5007639;28;46635;-67
2021/06/14 02:30:47;;;;;;;;;6.50;5.50;;;;;18.51;51.00;101759.88;5009939;28;45594;-72
2021/06/14 02:33:13;;;;;;;;;7.50;6.50;;;;;18.48;50.87;101763.72;5005743;28;45973;-70
2021/06/14 02:35:38;;;;;;;;;7.25;7.00;;;;;18.47;50.88;101758.53;5022207;28;45601;-66
2021/06/14 02:38:07;;;;;;;;;8.50;6.00;;;;;18.43;50.65;101746.53;5011939;28;46281;-73
2021/06/14 02:40:33;;;;;;;;;6.50;6.50;;;;;18.40;51.63;101750.41;5007333;28;45576;-72
2021/06/14 02:43:02;;;;;;;;;6.50;5.25;;;;;18.38;51.51;101738.22;5005042;28;45496;-70
2021/06/14 02:45:29;;;;;;;;;6.00;5.00;;;;;18.37;51.48;101742.72;5007950;28;45584;-66
2021/06/14 02:47:56;;;;;;;;;7.75;6.25;;;;;18.35;51.40;101738.56;5010515;28;46712;-73
2021/06/14 02:50:23;;;;;;;;;7.00;6.00;;;;;18.32;51.82;101734.38;5013599;28;45537;-72
2021/06/14 02:52:52;;;;;;;;;9.50;7.00;;;;;18.30;52.85;101735.56;5010100;28;45516;-72
2021/06/14 02:55:26;;;;;;;;;8.25;6.00;;;;;18.24;53.01;101734.44;5005338;28;45753;-70
2021/06/14 02:57:55;;;;;;;;;7.75;6.75;;;;;18.19;52.07;101734.94;5001039;28;46463;-69
2021/06/14 03:00:24;;;;;;;;;8.25;7.25;;;;;18.17;52.44;101731.63;5007094;28;45616;-72
2021/06/14 03:02:50;;;;;;;;;7.00;7.00;;;;;18.17;51.83;101738.81;5001593;28;45566;-69
2021/06/14 03:05:17;;;;;;;;;7.25;5.50;;;;;18.17;51.99;101736.97;5007694;28;45971;-67
2021/06/14 03:07:44;;;;;;;;;8.50;8.50;;;;;18.18;51.68;101735.97;5008370;28;46730;-72
2021/06/14 03:10:11;;;;;;;;;5.50;5.50;;;;;18.18;51.94;101737.81;5011041;28;45744;-66
2021/06/14 03:12:37;;;;;;;;;8.25;6.75;;;;;18.19;52.04;101742.97;5005203;28;45812;-67
2021/06/14 03:15:06;;;;;;;;;6.25;6.00;;;;;18.18;51.78;101738.66;5008360;28;45621;-66
2021/06/14 03:17:33;;;;;;;;;6.00;6.00;;;;;18.19;51.93;101734.13;5008830;28;45577;-69
2021/06/14 03:20:00;;;;;;;;;6.25;5.00;;;;;18.19;52.29;101740.31;5013182;28;45552;-68
2021/06/14 03:22:26;;;;;;;;;8.00;6.00;;;;;18.19;52.10;101742.97;5013507;28;45537;-72
2021/06/14 03:24:52;;;;;;;;;6.75;5.00;;;;;18.17;52.11;101744.16;5008789;28;45472;-69
2021/06/14 03:27:18;;;;;;;;;9.50;7.00;;;;;18.16;51.50;101746.00;5016342;28;45494;-69
2021/06/14 03:29:48;;;;;;;;;6.25;6.25;;;;;18.15;51.95;101744.34;5008559;28;45516;-69
2021/06/14 03:32:14;;;;;;;;;7.50;4.25;;;;;18.15;51.50;101741.69;5009574;28;45654;-67
2021/06/14 03:34:40;;;;;;;;;2.25;2.25;;;;;18.14;52.49;101748.03;5012775;28;45681;-67
2021/06/14 03:37:06;;;;;;;;;4.25;4.25;;;;;18.13;52.51;101745.53;5010490;28;46429;-69
2021/06/14 03:39:32;;;;;;;;;5.00;5.00;;;;;18.08;53.08;101748.72;5007907;28;45532;-67
2021/06/14 03:41:57;;;;;;;;;5.75;5.75;;;;;18.03;52.77;101745.75;5006405;28;45767;-73
2021/06/14 03:44:23;;;;;;;;;5.50;5.00;;;;;17.98;52.66;101745.44;5011158;28;45553;-67
2021/06/14 03:46:49;;;;;;;;;5.50;5.50;;;;;17.94;53.13;101747.59;5011684;28;45576;-70
2021/06/14 03:49:14;;;;;;;;;6.00;5.50;;;;;17.93;52.76;101750.47;5012605;28;45463;-72
2021/06/14 03:51:40;;;;;;;;;3.75;3.75;;;;;17.92;53.57;101751.47;5014003;28;45449;-72
2021/06/14 03:54:06;;;;;;;;;4.00;3.75;;;;;17.88;53.89;101748.31;5016399;28;45442;-67
2021/06/14 03:56:34;;;;;;;;;5.50;5.00;;;;;17.87;53.73;101745.81;5013673;28;46723;-69
2021/06/14 03:59:01;;;;;;;;;7.00;5.00;;;;;17.85;54.06;101751.31;5012897;28;45559;-69
2021/06/14 04:01:27;;;;;;;;;6.00;5.00;;;;;17.82;54.07;101747.16;5009535;28;45540;-69
2021/06/14 04:04:25;;;;;;;;;6.00;6.00;;;;;17.82;54.09;101759.69;5010651;28;45819;-69
2021/06/14 04:06:50;;;;;;;;;5.00;5.00;;;;;17.82;53.78;101760.50;5006687;28;46297;-69
2021/06/14 04:09:16;;;;;;;;;5.50;5.25;;;;;17.83;54.52;101756.84;5002886;28;45856;-70
2021/06/14 04:11:41;;;;;;;;;3.00;3.00;;;;;17.84;54.48;101758.50;5010417;28;45900;-72
2021/06/14 04:14:07;;;;;;;;;8.00;5.00;;;;;17.87;55.01;101757.31;5013404;28;45538;-70
2021/06/14 04:16:32;;;;;;;;;4.50;4.50;;;;;17.88;54.59;101760.81;5015319;28;45525;-69
2021/06/14 04:18:57;;;;;;;;;4.75;4.75;;;;;17.89;54.58;101757.16;5025553;28;45461;-67
2021/06/14 04:21:23;;;;;;;;;6.75;5.75;;;;;17.89;54.46;101766.00;5008602;28;45899;-72
2021/06/14 04:23:48;;;;;;;;;5.00;5.00;;;;;17.90;54.38;101766.84;5007693;28;45901;-73
2021/06/14 04:26:13;;;;;;;;;6.50;5.00;;;;;17.92;54.67;101768.34;5010031;28;45921;-71
2021/06/14 04:28:40;;;;;;;;;6.00;6.00;;;;;17.92;54.05;101770.19;5012704;28;45614;-72
2021/06/14 04:31:06;;;;;;;;;7.00;4.50;;;;;17.95;53.73;101764.47;5021020;28;45531;-70
2021/06/14 04:33:32;;;;;;;;;6.25;6.25;;;;;17.95;54.24;101767.16;5015449;28;45483;-73
2021/06/14 04:35:57;;;;;;;;;8.00;6.75;;;;;17.98;54.71;101769.50;5006668;28;47260;-66
2021/06/14 04:38:22;;;;;;;;;8.00;7.00;;;;;18.02;54.21;101765.47;5010786;28;45533;-69
2021/06/14 04:40:48;;;;;;;;;9.50;8.50;;;;;18.06;54.43;101769.47;5007696;28;45655;-69
2021/06/14 04:43:13;;;;;;;;;7.00;6.75;;;;;18.12;54.69;101776.78;5008324;28;45887;-67
2021/06/14 04:45:38;;;;;;;;;8.25;8.25;;;;;18.18;54.78;101777.94;5014360;28;46179;-70
2021/06/14 04:48:04;;;;;;;;;8.75;7.50;;;;;18.22;54.81;101782.78;5011096;28;45514;-73
2021/06/14 04:50:30;;;;;;;;;10.00;8.25;;;;;18.28;54.29;101781.25;5008961;28;45440;-69
2021/06/14 04:52:56;;;;;;;;;10.00;8.00;;;;;18.35;53.90;101786.75;5011807;28;45344;-73
2021/06/14 04:55:21;;;;;;;;;10.25;7.75;;;;;18.44;53.66;101785.66;5009306;28;45478;-70
2021/06/14 04:57:47;;;;;;;;;8.00;7.50;;;;;18.50;54.13;101782.31;5009049;28;45769;-69
2021/06/14 05:00:13;;;;;;;;;10.50;7.00;;;;;18.57;53.88;101780.59;5008635;28;45434;-73
2021/06/14 05:02:38;;;;;;;;;7.00;7.00;;;;;18.62;53.70;101778.22;5012669;28;45530;-66
2021/06/14 05:05:06;;;;;;;;;10.00;8.00;;;;;18.68;53.57;101788.19;5017800;28;45569;-69
2021/06/14 05:07:31;;;;;;;;;7.50;7.00;;;;;18.74;53.60;101788.50;5008962;28;45886;-71
2021/06/14 05:09:57;;;;;;;;;10.00;7.00;;;;;18.80;52.98;101790.50;5009448;28;45473;-66
2021/06/14 05:12:23;;;;;;;;;8.25;7.00;;;;;18.88;52.31;101798.47;5011688;28;45532;-69
2021/06/14 05:14:48;;;;;;;;;7.75;7.75;;;;;18.96;52.70;101797.59;5022647;28;45736;-67
2021/06/14 05:17:17;;;;;;;;;9.00;7.25;;;;;19.04;52.48;101795.69;5018030;28;45487;-69
2021/06/14 05:19:43;;;;;;;;;9.25;7.75;;;;;19.13;51.87;101801.81;5003949;28;45628;-75
2021/06/14 05:22:08;;;;;;;;;9.75;9.00;;;;;19.22;51.19;101811.44;5014867;28;45672;-72
2021/06/14 05:24:33;;;;;;;;;6.00;6.00;;;;;19.30;51.37;101813.22;5000984;28;46955;-69
2021/06/14 05:26:59;;;;;;;;;8.25;7.50;;;;;19.40;50.57;101815.66;5008843;28;45803;-67
2021/06/14 05:29:24;;;;;;;;;7.00;6.75;;;;;19.50;50.20;101813.53;5005573;28;45438;-72
2021/06/14 05:31:50;;;;;;;;;8.00;7.75;;;;;19.64;49.86;101811.91;5010072;28;45497;-70
2021/06/14 05:34:16;;;;;;;;;9.00;9.00;;;;;19.75;49.79;101822.19;5001822;28;45461;-69
2021/06/14 05:36:41;;;;;;;;;6.75;6.75;;;;;19.88;49.74;101822.41;5001586;28;45810;-67
2021/06/14 05:39:07;;;;;;;;;8.00;8.00;;;;;19.98;50.47;101822.97;4999823;28;45499;-69
2021/06/14 05:41:32;;;;;;;;;9.50;8.75;;;;;20.08;49.77;101814.63;5019642;28;45553;-70
2021/06/14 05:43:57;;;;;;;;;9.75;8.75;;;;;20.18;49.65;101817.03;5006347;28;46195;-68
2021/06/14 05:46:25;;;;;;;;;7.00;6.00;;;;;20.28;49.17;101812.22;5003460;28;45573;-68
2021/06/14 05:48:50;;;;;;;;;8.75;6.50;;;;;20.36;49.23;101812.09;5006184;28;45964;-69
2021/06/14 05:51:15;;;;;;;;;7.25;7.25;;;;;20.47;48.51;101809.94;5019457;28;45632;-71
2021/06/14 05:53:41;;;;;;;;;5.75;4.75;;;;;20.55;49.03;101807.19;5006113;28;45459;-69
2021/06/14 05:56:06;;;;;;;;;8.25;6.50;;;;;20.63;47.66;101815.13;5005569;28;45528;-71
2021/06/14 05:58:31;;;;;;;;;7.25;6.50;;;;;20.69;47.53;101800.91;5014186;28;45533;-74
2021/06/14 06:00:57;;;;;;;;;8.00;7.00;;;;;20.77;47.36;101797.28;5003019;28;45371;-74
2021/06/14 06:03:22;;;;;;;;;6.75;6.75;;;;;20.84;47.40;101798.19;5011902;28;45596;-72
2021/06/14 06:05:47;;;;;;;;;7.25;7.00;;;;;20.90;47.74;101794.75;5000414;28;45877;-72
2021/06/14 06:08:13;;;;;;;;;7.00;7.00;;;;;20.96;47.55;101801.19;5002992;28;45482;-74
2021/06/14 06:10:39;;;;;;;;;8.25;7.25;;;;;21.03;47.84;101808.28;5004690;28;45663;-69
2021/06/14 06:13:04;;;;;;;;;6.00;6.00;;;;;21.12;47.31;101803.63;5010171;28;45682;-71
2021/06/14 06:15:30;;;;;;;;;8.25;7.00;;;;;21.20;47.57;101806.16;5005826;28;45541;-68
2021/06/14 06:17:56;;;;;;;;;8.50;7.00;;;;;21.27;47.40;101812.44;5006869;28;45460;-72
2021/06/14 06:20:23;;;;;;;;;10.00;8.50;;;;;21.36;47.12;101809.59;5004811;28;45782;-69
2021/06/14 06:22:48;;;;;;;;;11.50;8.75;;;;;21.41;47.44;101817.94;5007072;28;46607;-71
2021/06/14 06:25:19;;;;;;;;;8.50;8.50;;;;;21.46;47.35;101815.50;5008292;28;45518;-69
2021/06/14 06:27:46;;;;;;;;;8.00;8.00;;;;;21.54;46.85;101815.38;5005003;28;45963;-71
2021/06/14 06:30:13;;;;;;;;;9.75;6.25;;;;;21.62;46.49;101815.22;5003622;28;45443;-68
2021/06/14 06:32:38;;;;;;;;;7.75;7.75;;;;;21.68;46.83;101809.03;5007579;28;47533;-74
2021/06/14 06:35:04;;;;;;;;;6.50;6.50;;;;;21.77;46.16;101807.03;5007180;28;45337;-72
2021/06/14 06:37:30;;;;;;;;;10.50;7.00;;;;;21.85;46.02;101808.72;5012722;28;45658;-69
2021/06/14 06:39:55;;;;;;;;;6.25;6.25;;;;;21.95;46.13;101798.44;5014451;28;45570;-69
2021/06/14 06:42:20;;;;;;;;;11.25;9.00;;;;;22.03;45.74;101800.13;5000354;28;46071;-71
2021/06/14 06:44:46;;;;;;;;;10.25;8.00;;;;;22.07;45.26;101804.91;4997622;28;45368;-74
2021/06/14 06:47:11;;;;;;;;;7.00;7.00;;;;;22.11;45.96;101797.28;5013057;28;45555;-74
2021/06/14 06:49:37;;;;;;;;;6.50;6.50;;;;;22.15;44.86;101803.91;5007106;28;45654;-80
2021/06/14 06:52:03;;;;;;;;;11.75;8.50;;;;;22.20;44.61;101804.16;5010636;28;46380;-71
2021/06/14 06:54:28;;;;;;;;;7.50;5.00;;;;;22.24;44.17;101802.75;5008681;28;45603;-70
2021/06/14 06:56:55;;;;;;;;;8.75;8.00;;;;;22.31;43.88;101794.72;5012448;28;45379;-71
2021/06/14 06:59:21;;;;;;;;;7.50;6.25;;;;;22.39;43.83;101791.81;5039191;28;45769;-75
2021/06/14 07:01:47;;;;;;;;;8.00;6.75;;;;;22.45;44.11;101800.94;5009278;28;46327;-75
2021/06/14 07:04:14;;;;;;;;;9.75;7.00;;;;;22.56;43.49;101800.38;5020246;28;45434;-75
2021/06/14 07:06:39;;;;;;;;;7.50;7.50;;;;;22.67;42.78;101796.25;5032167;28;45587;-71
2021/06/14 07:09:05;;;;;;;;;7.50;7.50;;;;;22.74;42.99;101797.09;5011955;28;59565;-71
2021/06/14 07:11:32;;;;;;;;;7.00;6.25;;;;;22.81;42.63;101800.63;5006370;28;46568;-69
2021/06/14 07:13:58;;;;;;;;;7.50;6.75;;;;;22.90;42.48;101796.72;5013579;28;46011;-72
2021/06/14 07:16:24;;;;;;;;;7.25;7.00;;;;;23.00;42.10;101795.50;5005621;28;45422;-72
2021/06/14 07:18:51;;;;;;;;;6.75;6.75;;;;;23.06;42.50;101781.19;5010839;28;45461;-69
2021/06/14 07:21:17;;;;;;;;;4.50;4.25;;;;;23.18;42.11;101788.47;5016221;28;46225;-71
2021/06/14 07:23:43;;;;;;;;;8.00;7.25;;;;;23.33;42.23;101782.03;5008749;28;45545;-72
2021/06/14 07:26:09;;;;;;;;;8.25;6.25;;;;;23.50;41.21;101788.66;5026882;28;45422;-70
2021/06/14 07:28:35;;;;;;;;;7.25;7.00;;;;;23.62;41.09;101778.03;5017153;28;45390;-74
2021/06/14 07:31:01;;;;;;;;;8.50;6.75;;;;;23.78;40.71;101780.31;5011504;28;46097;-72
2021/06/14 07:33:26;;;;;;;;;6.25;6.25;;;;;23.90;40.13;101779.66;5008621;28;45471;-70
2021/06/14 07:35:52;;;;;;;;;6.75;4.50;;;;;24.03;40.86;101771.50;5021513;28;45787;-72
2021/06/14 07:38:17;;;;;;;;;9.25;7.00;;;;;24.24;39.26;101776.63;5003000;28;45530;-72
2021/06/14 07:40:44;;;;;;;;;6.25;6.25;;;;;24.49;40.42;101772.38;5009043;28;46671;-75
2021/06/14 07:43:12;;;;;;;;;7.50;6.00;;;;;24.77;39.88;101774.66;5005596;28;45579;-75
2021/06/14 07:45:40;;;;;;;;;8.50;7.50;;;;;25.06;39.81;101774.03;5008782;28;45458;-73
2021/06/14 07:48:05;;;;;;;;;7.25;5.00;;;;;25.44;37.24;101775.78;5002668;28;45696;-71
2021/06/14 07:50:32;;;;;;;;;8.75;7.00;;;;;25.67;38.02;101774.34;5011517;28;46208;-70
2021/06/14 07:52:57;;;;;;;;;6.00;6.00;;;;;25.91;36.68;101761.78;5009318;28;45501;-69
2021/06/14 07:55:23;;;;;;;;;7.25;6.25;;;;;26.15;37.25;101760.84;5009440;28;45522;-71
2021/06/14 07:57:48;;;;;;;;;7.00;6.00;;;;;26.97;35.43;101754.03;5006392;28;45560;-73
2021/06/14 08:00:14;;;;;;;;;8.50;7.00;;;;;29.89;32.34;101756.75;5008390;28;45531;-70
2021/06/14 08:02:40;;;;;;;;;6.75;6.75;;;;;33.19;25.12;101752.50;5004232;28;45451;-72
2021/06/14 08:05:06;;;;;;;;;8.50;7.75;;;;;35.78;27.24;101756.69;5013914;28;45555;-74
2021/06/14 08:07:35;;;;;;;;;7.00;7.00;;;;;38.44;24.75;101755.38;5005123;28;45467;-76
2021/06/14 08:10:03;;;;;;;;;7.00;5.50;;;;;40.72;22.88;101765.94;4997618;28;45936;-70
2021/06/14 08:12:31;;;;;;;;;7.25;5.75;;;;;42.56;21.69;101766.44;4994759;28;46431;-72
2021/06/14 08:14:56;;;;;;;;;6.25;6.25;;;;;44.23;19.23;101771.03;4999537;28;45806;-72
2021/06/14 08:17:22;;;;;;;;;4.25;4.00;;;;;45.75;19.40;101772.84;5001596;28;45419;-70
2021/06/14 08:25:15;;;;;;;;;4.00;4.00;;;;;47.25;14.42;101760.91;4999837;28;45528;-77
2021/06/14 08:27:44;;;;;;;;;7.25;7.25;;;;;47.75;11.39;101765.19;5003055;28;45650;-69
2021/06/14 08:30:12;;;;;;;;;7.50;5.00;;;;;47.87;15.41;101766.19;5003627;28;46503;-70
2021/06/14 08:32:39;;;;;;;;;6.00;5.00;;;;;48.68;15.38;101759.06;5003856;28;46010;-75
2021/06/14 08:35:06;;;;;;;;;7.50;6.25;;;;;49.65;14.18;101763.34;5011276;28;45640;-71
2021/06/14 08:37:32;;;;;;;;;7.00;5.25;;;;;50.52;13.88;101753.97;5002292;28;45796;-70
2021/06/14 08:39:57;;;;;;;;;4.75;4.75;;;;;51.04;13.67;101759.19;5005276;28;45430;-70
2021/06/14 08:42:23;;;;;;;;;6.00;6.00;;;;;51.47;12.99;101757.09;5003368;28;45561;-74
2021/06/14 08:44:49;;;;;;;;;6.50;5.25;;;;;51.63;11.83;101744.56;5004230;28;45919;-70
2021/06/14 08:47:16;;;;;;;;;4.25;4.25;;;;;51.47;11.23;101754.28;4995040;28;45903;-70
2021/06/14 08:49:43;;;;;;;;;7.50;5.00;;;;;51.22;10.55;101748.72;5004002;28;45650;-70
2021/06/14 08:52:09;;;;;;;;;8.00;5.50;;;;;51.16;12.26;101742.69;5002992;28;45681;-68
2021/06/14 08:54:41;;;;;;;;;6.75;5.00;;;;;51.67;11.70;101739.72;5003512;28;45711;-68
2021/06/14 08:57:07;;;;;;;;;5.50;5.25;;;;;52.16;11.05;101738.69;5005114;28;45597;-68
2021/06/14 08:59:33;;;;;;;;;5.25;4.50;;;;;52.48;10.53;101734.81;5000253;28;45438;-70
2021/06/14 09:01:59;;;;;;;;;6.00;6.00;;;;;52.60;11.46;101734.31;5011248;28;45531;-69
2021/06/14 09:04:25;;;;;;;;;7.00;6.25;;;;;52.64;10.72;101737.09;5002715;28;45496;-70
2021/06/14 09:06:51;;;;;;;;;5.00;4.50;;;;;52.85;10.63;101728.47;5005747;28;45845;-69
2021/06/14 09:09:16;;;;;;;;;6.75;5.00;;;;;52.74;9.24;101730.56;5001384;28;45558;-70
2021/06/14 09:11:54;;;;;;;;;5.00;5.00;;;;;52.25;10.01;101716.44;5001975;28;45596;-70
2021/06/14 09:14:25;;;;;;;;;6.00;5.00;;;;;51.97;10.47;101708.19;5002012;28;45403;-67
2021/06/14 09:16:51;;;;;;;;;6.75;4.00;;;;;51.90;10.57;101708.22;5005380;28;45580;-70
2021/06/14 09:19:23;;;;;;;;;6.00;6.00;;;;;51.21;10.61;101702.06;5004354;28;47632;-67
2021/06/14 09:21:54;;;;;;;;;8.00;6.75;;;;;50.46;11.90;101710.59;5001295;28;45455;-72
2021/06/14 09:24:20;;;;;;;;;5.75;5.00;;;;;49.48;10.87;101708.72;4993051;28;45526;-69
2021/06/14 09:26:46;;;;;;;;;7.50;5.25;;;;;47.83;11.96;101704.56;5005126;28;45498;-73
2021/06/14 09:29:13;;;;;;;;;5.50;5.50;;;;;46.61;12.72;101699.13;5005316;28;45525;-73
2021/06/14 09:31:45;;;;;;;;;7.75;6.25;;;;;45.84;13.52;101707.25;5005473;28;45505;-69
2021/06/14 09:34:10;;;;;;;;;6.50;4.75;;;;;45.31;13.74;101706.91;5003572;28;45497;-77
2021/06/14 09:36:36;;;;;;;;;5.25;4.25;;;;;45.26;14.29;101698.84;5001031;28;46903;-68
2021/06/14 09:39:18;;;;;;;;;5.00;5.00;;;;;45.48;13.72;101708.50;5003425;28;45790;-74
2021/06/14 09:41:47;;;;;;;;;4.00;4.00;;;;;45.19;13.87;101701.47;5000400;28;45778;-69
2021/06/14 09:44:13;;;;;;;;;5.00;5.00;;;;;44.91;13.63;101702.41;5009212;28;45674;-67
2021/06/14 09:46:38;;;;;;;;;5.00;4.00;;;;;44.68;13.66;101698.59;5004934;28;45642;-69
2021/06/14 09:49:05;;;;;;;;;5.50;4.50;;;;;44.53;14.17;101698.22;5001035;28;46347;-77
2021/06/14 09:51:33;;;;;;;;;5.50;4.25;;;;;44.50;14.54;101690.59;5001906;28;45529;-72
2021/06/14 09:53:59;;;;;;;;;5.25;4.50;;;;;44.30;14.00;101691.63;5005311;28;45553;-72
2021/06/14 09:56:35;;;;;;;;;4.50;4.25;;;;;44.00;13.13;101697.59;5002294;28;45452;-70
2021/06/14 09:59:01;;;;;;;;;3.00;3.00;;;;;43.66;14.12;101697.00;5006255;28;47056;-73
2021/06/14 10:01:30;;;;;;;;;5.00;5.00;;;;;43.70;13.69;101695.13;5004253;28;45548;-74
2021/06/14 10:03:58;;;;;;;;;4.00;3.00;;;;;43.72;13.48;101694.78;5003973;28;45458;-68
2021/06/14 10:06:28;;;;;;;;;4.75;4.00;;;;;43.34;13.73;101694.03;5002736;28;45477;-69
2021/06/14 10:08:53;;;;;;;;;3.75;3.75;;;;;42.88;13.50;101692.53;5003363;28;45620;-69
2021/06/14 10:11:19;;;;;;;;;2.75;2.75;;;;;42.94;14.27;101686.41;5004013;28;46153;-76
2021/06/14 10:13:47;;;;;;;;;4.50;4.25;;;;;42.98;13.37;101688.47;5005770;28;45712;-70
2021/06/14 10:16:15;;;;;;;;;4.25;4.25;;;;;42.59;13.49;101699.91;5002740;28;45529;-70
2021/06/14 10:18:59;;;;;;;;;4.00;4.00;;;;;42.06;13.46;101682.97;5002259;28;45450;-74
2021/06/14 10:21:29;;;;;;;;;2.25;2.25;;;;;41.85;13.58;101684.94;5001197;28;45846;-71
2021/06/14 10:23:57;;;;;;;;;5.00;3.25;;;;;41.74;14.37;101689.28;5004165;28;45805;-71
2021/06/14 10:26:25;;;;;;;;;5.25;3.50;;;;;42.00;13.81;101686.31;5004750;28;45502;-75
2021/06/14 10:28:51;;;;;;;;;4.00;4.00;;;;;42.26;14.35;101691.56;5008687;28;45806;-71
2021/06/14 10:31:16;;;;;;;;;4.00;4.00;;;;;42.63;14.32;101688.91;5005185;28;45570;-72
2021/06/14 10:33:44;;;;;;;;;4.75;3.75;;;;;42.82;14.03;101689.19;5000025;28;45801;-76
2021/06/14 10:36:10;;;;;;;;;4.00;3.00;;;;;43.12;13.31;101683.38;5005974;28;45533;-76
2021/06/14 10:38:39;;;;;;;;;3.50;3.50;;;;;43.38;13.32;101689.41;5013207;28;47246;-72
2021/06/14 10:41:05;;;;;;;;;3.25;3.25;;;;;43.57;12.77;101687.94;5007171;28;45532;-72
2021/06/14 10:43:31;;;;;;;;;2.75;2.75;;;;;43.51;12.00;101689.38;5003233;28;45482;-73
2021/06/14 10:45:58;;;;;;;;;3.00;3.00;;;;;43.24;9.99;101682.59;5006660;28;45647;-72
2021/06/14 10:48:32;;;;;;;;;4.50;3.75;;;;;42.82;12.00;101678.06;5002335;28;46791;-70
2021/06/14 10:50:59;;;;;;;;;5.00;3.50;;;;;42.29;12.10;101679.81;5002819;28;46067;-74
2021/06/14 10:53:31;;;;;;;;;3.25;3.00;;;;;42.31;12.82;101678.31;5005885;28;45446;-75
2021/06/14 10:56:01;;;;;;;;;3.00;3.00;;;;;42.46;11.86;101678.81;5010632;28;46033;-69
2021/06/14 10:58:29;;;;;;;;;2.50;2.50;;;;;42.30;12.19;101676.66;5013584;28;46886;-74
2021/06/14 11:01:04;;;;;;;;;3.25;3.25;;;;;42.03;10.52;101680.06;5009372;28;45453;-74
2021/06/14 11:03:44;;;;;;;;;3.50;3.50;;;;;41.93;12.21;101677.69;5006266;28;45418;-73
2021/06/14 11:06:17;;;;;;;;;3.00;3.00;;;;;41.89;11.26;101680.31;5009511;28;45875;-73
2021/06/14 11:08:42;;;;;;;;;3.50;3.00;;;;;41.96;12.91;101675.06;5007265;28;45429;-77
2021/06/14 11:11:08;;;;;;;;;2.25;2.25;;;;;42.28;13.67;101678.97;5016310;28;45821;-67
2021/06/14 11:13:45;;;;;;;;;5.50;3.75;;;;;42.82;13.19;101677.25;5013955;28;45548;-70
2021/06/14 11:16:10;;;;;;;;;3.00;3.00;;;;;43.44;13.00;101678.03;5003548;28;45552;-73
2021/06/14 11:18:36;;;;;;;;;5.00;4.00;;;;;43.99;12.92;101676.47;4999719;28;45642;-70
2021/06/14 11:21:10;;;;;;;;;4.00;4.00;;;;;44.32;12.18;101672.59;5002759;28;45454;-70
2021/06/14 11:23:37;;;;;;;;;3.00;3.00;;;;;44.53;11.52;101684.28;5009153;28;45605;-73
2021/06/14 11:26:03;;;;;;;;;4.75;4.75;;;;;44.93;12.62;101677.72;5005823;28;45548;-73
2021/06/14 11:28:39;;;;;;;;;2.75;2.75;;;;;45.18;12.05;101683.09;5005791;28;46448;-75
2021/06/14 11:31:18;;;;;;;;;2.25;2.25;;;;;45.41;12.07;101669.28;4997224;28;45727;-71